sensor_id;sensor_type;location;lat;lon;timestamp;P1;durP1;ratioP1;P2;durP2;ratioP2
78079;SDS011;67298;51.322;5.958;2023-05-27T00:01:28;3.6;;;1.6;;
78079;SDS011;67298;51.322;5.958;2023-05-27T00:06:08;6.8;;;1.5;;
78079;SDS011;67298;51.322;5.958;2023-05-27T00:10:47;0.0;;;0.0;;
78079;SDS011;67298;51.322;5.958;2023-05-27T00:15:26;1.6;;;1.2;;
78079;SDS011;67298;51.322;5.958;2023-05-27T00:20:06;1.5;;;1.0;;
78079;SDS011;67298;51.322;5.958;2023-05-27T00:24:45;4.0;;;1.6;;
78079;SDS011;67298;51.322;5.958;2023-05-27T00:29:24;3.3;;;1.5;;
78079;SDS011;67298;51.322;5.958;2023-05-27T00:34:04;4.7;;;1.5;;
78079;SDS011;67298;51.322;5.958;2023-05-27T00:38:43;2.3;;;1.7;;
78079;SDS011;67298;51.322;5.958;2023-05-27T00:43:22;2.5;;;1.5;;
78079;SDS011;67298;51.322;5.958;2023-05-27T00:48:02;2.2;;;1.4;;
78079;SDS011;67298;51.322;5.958;2023-05-27T00:52:41;3.2;;;1.8;;
78079;SDS011;67298;51.322;5.958;2023-05-27T00:57:20;0.6;;;0.5;;
78079;SDS011;67298;51.322;5.958;2023-05-27T01:02:00;4.5;;;1.5;;
78079;SDS011;67298;51.322;5.958;2023-05-27T01:06:39;5.5;;;2.5;;
78079;SDS011;67298;51.322;5.958;2023-05-27T01:11:19;14.1;;;1.1;;
78079;SDS011;67298;51.322;5.958;2023-05-27T01:15:58;16.1;;;2.5;;
78079;SDS011;67298;51.322;5.958;2023-05-27T01:20:37;9.1;;;1.9;;
78079;SDS011;67298;51.322;5.958;2023-05-27T01:25:17;17.8;;;2.6;;
78079;SDS011;67298;51.322;5.958;2023-05-27T01:29:56;31.4;;;3.8;;
78079;SDS011;67298;51.322;5.958;2023-05-27T01:34:36;8.9;;;1.8;;
78079;SDS011;67298;51.322;5.958;2023-05-27T01:39:15;31.9;;;3.5;;
78079;SDS011;67298;51.322;5.958;2023-05-27T01:43:55;24.4;;;3.3;;
78079;SDS011;67298;51.322;5.958;2023-05-27T01:48:34;24.0;;;3.5;;
78079;SDS011;67298;51.322;5.958;2023-05-27T01:53:13;30.6;;;4.1;;
78079;SDS011;67298;51.322;5.958;2023-05-27T01:57:53;44.0;;;4.6;;
78079;SDS011;67298;51.322;5.958;2023-05-27T02:02:32;78.7;;;7.4;;
78079;SDS011;67298;51.322;5.958;2023-05-27T02:07:11;50.5;;;5.8;;
78079;SDS011;67298;51.322;5.958;2023-05-27T02:11:51;65.1;;;7.3;;
78079;SDS011;67298;51.322;5.958;2023-05-27T02:16:30;75.6;;;9.9;;
78079;SDS011;67298;51.322;5.958;2023-05-27T02:21:09;39.4;;;6.0;;
78079;SDS011;67298;51.322;5.958;2023-05-27T02:25:49;45.3;;;6.1;;
78079;SDS011;67298;51.322;5.958;2023-05-27T02:30:28;48.2;;;5.8;;
78079;SDS011;67298;51.322;5.958;2023-05-27T02:35:07;54.5;;;5.3;;
78079;SDS011;67298;51.322;5.958;2023-05-27T02:39:47;64.1;;;6.6;;
78079;SDS011;67298;51.322;5.958;2023-05-27T02:44:26;62.5;;;7.6;;
78079;SDS011;67298;51.322;5.958;2023-05-27T02:49:06;19.4;;;1.7;;
78079;SDS011;67298;51.322;5.958;2023-05-27T02:53:45;36.7;;;5.4;;
78079;SDS011;67298;51.322;5.958;2023-05-27T02:58:25;29.3;;;4.5;;
78079;SDS011;67298;51.322;5.958;2023-05-27T03:03:04;29.0;;;4.4;;
78079;SDS011;67298;51.322;5.958;2023-05-27T03:07:44;17.8;;;2.9;;
78079;SDS011;67298;51.322;5.958;2023-05-27T03:12:32;13.4;;;2.4;;
78079;SDS011;67298;51.322;5.958;2023-05-27T03:17:16;7.9;;;2.3;;
78079;SDS011;67298;51.322;5.958;2023-05-27T03:21:56;3.9;;;2.1;;
78079;SDS011;67298;51.322;5.958;2023-05-27T03:26:36;3.3;;;2.3;;
78079;SDS011;67298;51.322;5.958;2023-05-27T03:31:15;6.5;;;2.5;;
78079;SDS011;67298;51.322;5.958;2023-05-27T03:35:56;2.4;;;1.6;;
78079;SDS011;67298;51.322;5.958;2023-05-27T03:40:38;5.4;;;2.3;;
78079;SDS011;67298;51.322;5.958;2023-05-27T03:45:18;4.4;;;2.2;;
78079;SDS011;67298;51.322;5.958;2023-05-27T03:49:58;6.2;;;1.6;;
78079;SDS011;67298;51.322;5.958;2023-05-27T03:54:38;7.9;;;2.6;;
78079;SDS011;67298;51.322;5.958;2023-05-27T03:59:17;8.1;;;2.0;;
78079;SDS011;67298;51.322;5.958;2023-05-27T04:03:57;7.1;;;2.6;;
78079;SDS011;67298;51.322;5.958;2023-05-27T04:08:36;5.3;;;2.1;;
78079;SDS011;67298;51.322;5.958;2023-05-27T04:13:16;1.9;;;1.8;;
78079;SDS011;67298;51.322;5.958;2023-05-27T04:17:55;4.4;;;2.1;;
78079;SDS011;67298;51.322;5.958;2023-05-27T04:22:34;8.5;;;2.3;;
78079;SDS011;67298;51.322;5.958;2023-05-27T04:27:14;7.4;;;2.3;;
78079;SDS011;67298;51.322;5.958;2023-05-27T04:31:53;4.4;;;2.1;;
78079;SDS011;67298;51.322;5.958;2023-05-27T04:36:32;5.4;;;1.8;;
78079;SDS011;67298;51.322;5.958;2023-05-27T04:41:12;3.7;;;2.0;;
78079;SDS011;67298;51.322;5.958;2023-05-27T04:45:51;4.1;;;2.1;;
78079;SDS011;67298;51.322;5.958;2023-05-27T04:50:30;1.4;;;1.4;;
78079;SDS011;67298;51.322;5.958;2023-05-27T04:55:10;4.0;;;1.9;;
78079;SDS011;67298;51.322;5.958;2023-05-27T04:59:49;4.5;;;1.9;;
78079;SDS011;67298;51.322;5.958;2023-05-27T05:04:29;4.8;;;1.9;;
78079;SDS011;67298;51.322;5.958;2023-05-27T05:09:08;4.8;;;1.7;;
78079;SDS011;67298;51.322;5.958;2023-05-27T05:13:47;1.7;;;1.5;;
78079;SDS011;67298;51.322;5.958;2023-05-27T05:18:27;5.9;;;2.0;;
78079;SDS011;67298;51.322;5.958;2023-05-27T05:23:06;3.8;;;1.5;;
78079;SDS011;67298;51.322;5.958;2023-05-27T05:27:45;0.3;;;0.3;;
78079;SDS011;67298;51.322;5.958;2023-05-27T05:32:25;2.7;;;1.7;;
78079;SDS011;67298;51.322;5.958;2023-05-27T05:37:04;3.0;;;1.6;;
78079;SDS011;67298;51.322;5.958;2023-05-27T05:41:43;3.1;;;1.7;;
78079;SDS011;67298;51.322;5.958;2023-05-27T05:46:23;2.4;;;1.8;;
78079;SDS011;67298;51.322;5.958;2023-05-27T05:51:02;7.0;;;1.9;;
78079;SDS011;67298;51.322;5.958;2023-05-27T05:55:41;4.0;;;2.2;;
78079;SDS011;67298;51.322;5.958;2023-05-27T06:00:21;4.3;;;1.8;;
78079;SDS011;67298;51.322;5.958;2023-05-27T06:05:00;4.3;;;2.0;;
78079;SDS011;67298;51.322;5.958;2023-05-27T06:09:40;2.0;;;1.6;;
78079;SDS011;67298;51.322;5.958;2023-05-27T06:14:19;2.5;;;1.6;;
78079;SDS011;67298;51.322;5.958;2023-05-27T06:18:59;2.8;;;1.9;;
78079;SDS011;67298;51.322;5.958;2023-05-27T06:23:39;3.4;;;1.8;;
78079;SDS011;67298;51.322;5.958;2023-05-27T06:28:18;1.3;;;1.2;;
78079;SDS011;67298;51.322;5.958;2023-05-27T06:32:57;3.2;;;1.8;;
78079;SDS011;67298;51.322;5.958;2023-05-27T06:37:36;2.6;;;1.5;;
78079;SDS011;67298;51.322;5.958;2023-05-27T06:42:16;3.1;;;1.9;;
78079;SDS011;67298;51.322;5.958;2023-05-27T06:46:55;4.4;;;1.9;;
78079;SDS011;67298;51.322;5.958;2023-05-27T06:51:35;5.2;;;1.6;;
78079;SDS011;67298;51.322;5.958;2023-05-27T06:56:14;4.4;;;2.0;;
78079;SDS011;67298;51.322;5.958;2023-05-27T07:00:53;2.6;;;2.0;;
78079;SDS011;67298;51.322;5.958;2023-05-27T07:05:33;2.5;;;1.8;;
78079;SDS011;67298;51.322;5.958;2023-05-27T07:10:12;3.0;;;1.9;;
78079;SDS011;67298;51.322;5.958;2023-05-27T07:14:51;3.5;;;1.9;;
78079;SDS011;67298;51.322;5.958;2023-05-27T07:19:31;2.8;;;2.2;;
78079;SDS011;67298;51.322;5.958;2023-05-27T07:24:10;5.0;;;2.2;;
78079;SDS011;67298;51.322;5.958;2023-05-27T07:28:49;1.3;;;1.2;;
78079;SDS011;67298;51.322;5.958;2023-05-27T07:33:29;3.3;;;1.6;;
78079;SDS011;67298;51.322;5.958;2023-05-27T07:38:08;3.1;;;1.5;;
78079;SDS011;67298;51.322;5.958;2023-05-27T07:42:47;6.6;;;2.0;;
78079;SDS011;67298;51.322;5.958;2023-05-27T07:47:27;3.7;;;1.8;;
78079;SDS011;67298;51.322;5.958;2023-05-27T07:52:06;2.5;;;1.6;;
78079;SDS011;67298;51.322;5.958;2023-05-27T07:56:45;2.5;;;1.6;;
78079;SDS011;67298;51.322;5.958;2023-05-27T08:01:25;2.8;;;1.7;;
78079;SDS011;67298;51.322;5.958;2023-05-27T08:06:04;0.6;;;0.6;;
78079;SDS011;67298;51.322;5.958;2023-05-27T08:10:43;3.6;;;1.7;;
78079;SDS011;67298;51.322;5.958;2023-05-27T08:15:23;2.1;;;1.4;;
78079;SDS011;67298;51.322;5.958;2023-05-27T08:20:02;4.1;;;1.8;;
78079;SDS011;67298;51.322;5.958;2023-05-27T08:24:42;2.8;;;1.6;;
78079;SDS011;67298;51.322;5.958;2023-05-27T08:29:21;5.2;;;1.7;;
78079;SDS011;67298;51.322;5.958;2023-05-27T08:34:01;3.6;;;1.7;;
78079;SDS011;67298;51.322;5.958;2023-05-27T08:38:40;2.0;;;1.8;;
78079;SDS011;67298;51.322;5.958;2023-05-27T08:43:19;3.2;;;2.0;;
78079;SDS011;67298;51.322;5.958;2023-05-27T08:47:59;4.1;;;1.9;;
78079;SDS011;67298;51.322;5.958;2023-05-27T08:52:38;3.6;;;1.7;;
78079;SDS011;67298;51.322;5.958;2023-05-27T08:57:18;5.5;;;1.9;;
78079;SDS011;67298;51.322;5.958;2023-05-27T09:01:57;2.5;;;1.7;;
78079;SDS011;67298;51.322;5.958;2023-05-27T09:06:36;1.2;;;1.1;;
78079;SDS011;67298;51.322;5.958;2023-05-27T09:11:16;2.1;;;1.7;;
78079;SDS011;67298;51.322;5.958;2023-05-27T09:15:55;2.3;;;1.9;;
78079;SDS011;67298;51.322;5.958;2023-05-27T09:20:35;3.8;;;2.0;;
78079;SDS011;67298;51.322;5.958;2023-05-27T09:25:14;4.2;;;1.9;;
78079;SDS011;67298;51.322;5.958;2023-05-27T09:29:54;2.4;;;1.6;;
78079;SDS011;67298;51.322;5.958;2023-05-27T09:34:33;3.5;;;1.7;;
78079;SDS011;67298;51.322;5.958;2023-05-27T09:39:12;1.5;;;1.4;;
78079;SDS011;67298;51.322;5.958;2023-05-27T09:43:51;1.9;;;1.7;;
78079;SDS011;67298;51.322;5.958;2023-05-27T09:48:31;4.0;;;2.0;;
78079;SDS011;67298;51.322;5.958;2023-05-27T09:53:10;2.2;;;1.2;;
78079;SDS011;67298;51.322;5.958;2023-05-27T09:57:50;3.2;;;1.6;;
78079;SDS011;67298;51.322;5.958;2023-05-27T10:02:29;2.4;;;1.9;;
78079;SDS011;67298;51.322;5.958;2023-05-27T10:07:08;3.7;;;1.2;;
78079;SDS011;67298;51.322;5.958;2023-05-27T10:11:48;3.5;;;1.8;;
78079;SDS011;67298;51.322;5.958;2023-05-27T10:16:27;3.6;;;2.0;;
78079;SDS011;67298;51.322;5.958;2023-05-27T10:21:07;4.4;;;2.2;;
78079;SDS011;67298;51.322;5.958;2023-05-27T10:25:46;3.9;;;1.8;;
78079;SDS011;67298;51.322;5.958;2023-05-27T10:30:26;3.4;;;2.3;;
78079;SDS011;67298;51.322;5.958;2023-05-27T10:35:05;4.3;;;2.1;;
78079;SDS011;67298;51.322;5.958;2023-05-27T10:39:44;2.0;;;1.7;;
78079;SDS011;67298;51.322;5.958;2023-05-27T10:44:24;0.1;;;0.1;;
78079;SDS011;67298;51.322;5.958;2023-05-27T10:49:03;2.9;;;1.9;;
78079;SDS011;67298;51.322;5.958;2023-05-27T10:53:43;6.6;;;1.6;;
78079;SDS011;67298;51.322;5.958;2023-05-27T10:58:22;5.2;;;2.1;;
78079;SDS011;67298;51.322;5.958;2023-05-27T11:03:01;5.5;;;2.5;;
78079;SDS011;67298;51.322;5.958;2023-05-27T11:07:41;10.3;;;1.8;;
78079;SDS011;67298;51.322;5.958;2023-05-27T11:12:21;5.2;;;2.1;;
78079;SDS011;67298;51.322;5.958;2023-05-27T11:17:00;3.2;;;1.9;;
78079;SDS011;67298;51.322;5.958;2023-05-27T11:21:40;3.2;;;2.2;;
78079;SDS011;67298;51.322;5.958;2023-05-27T11:26:20;4.2;;;2.0;;
78079;SDS011;67298;51.322;5.958;2023-05-27T11:31:00;2.3;;;2.0;;
78079;SDS011;67298;51.322;5.958;2023-05-27T11:35:40;4.5;;;2.1;;
78079;SDS011;67298;51.322;5.958;2023-05-27T11:40:20;2.6;;;1.9;;
78079;SDS011;67298;51.322;5.958;2023-05-27T11:44:59;2.0;;;1.1;;
78079;SDS011;67298;51.322;5.958;2023-05-27T11:49:39;2.9;;;1.7;;
78079;SDS011;67298;51.322;5.958;2023-05-27T11:54:21;3.4;;;2.3;;
78079;SDS011;67298;51.322;5.958;2023-05-27T11:59:01;5.0;;;2.4;;
78079;SDS011;67298;51.322;5.958;2023-05-27T12:03:40;4.9;;;2.1;;
78079;SDS011;67298;51.322;5.958;2023-05-27T12:08:20;2.1;;;1.8;;
78079;SDS011;67298;51.322;5.958;2023-05-27T12:12:59;4.4;;;2.5;;
78079;SDS011;67298;51.322;5.958;2023-05-27T12:17:39;7.0;;;2.5;;
78079;SDS011;67298;51.322;5.958;2023-05-27T12:22:20;5.5;;;2.3;;
78079;SDS011;67298;51.322;5.958;2023-05-27T12:26:59;3.1;;;2.3;;
78079;SDS011;67298;51.322;5.958;2023-05-27T12:31:38;2.3;;;2.0;;
78079;SDS011;67298;51.322;5.958;2023-05-27T12:36:18;4.1;;;2.3;;
78079;SDS011;67298;51.322;5.958;2023-05-27T12:40:59;5.3;;;2.0;;
78079;SDS011;67298;51.322;5.958;2023-05-27T12:45:39;2.0;;;1.9;;
78079;SDS011;67298;51.322;5.958;2023-05-27T12:50:18;3.0;;;2.5;;
78079;SDS011;67298;51.322;5.958;2023-05-27T12:55:03;2.2;;;1.7;;
78079;SDS011;67298;51.322;5.958;2023-05-27T12:59:42;3.7;;;2.2;;
78079;SDS011;67298;51.322;5.958;2023-05-27T13:04:22;3.5;;;2.6;;
78079;SDS011;67298;51.322;5.958;2023-05-27T13:09:07;2.1;;;1.9;;
78079;SDS011;67298;51.322;5.958;2023-05-27T13:13:46;4.3;;;2.5;;
78079;SDS011;67298;51.322;5.958;2023-05-27T13:18:26;6.7;;;2.3;;
78079;SDS011;67298;51.322;5.958;2023-05-27T13:23:08;1.8;;;1.7;;
78079;SDS011;67298;51.322;5.958;2023-05-27T13:27:47;3.8;;;2.3;;
78079;SDS011;67298;51.322;5.958;2023-05-27T13:32:27;2.4;;;2.2;;
78079;SDS011;67298;51.322;5.958;2023-05-27T13:37:06;3.2;;;2.4;;
78079;SDS011;67298;51.322;5.958;2023-05-27T13:41:46;3.1;;;2.1;;
78079;SDS011;67298;51.322;5.958;2023-05-27T13:46:25;2.5;;;2.1;;
78079;SDS011;67298;51.322;5.958;2023-05-27T13:51:07;5.8;;;2.5;;
78079;SDS011;67298;51.322;5.958;2023-05-27T13:55:46;6.0;;;2.9;;
78079;SDS011;67298;51.322;5.958;2023-05-27T14:00:25;5.8;;;2.8;;
78079;SDS011;67298;51.322;5.958;2023-05-27T14:05:05;5.1;;;2.5;;
78079;SDS011;67298;51.322;5.958;2023-05-27T14:09:44;2.5;;;2.0;;
78079;SDS011;67298;51.322;5.958;2023-05-27T14:14:23;3.9;;;2.3;;
78079;SDS011;67298;51.322;5.958;2023-05-27T14:19:03;6.2;;;2.2;;
78079;SDS011;67298;51.322;5.958;2023-05-27T14:23:42;5.1;;;1.8;;
78079;SDS011;67298;51.322;5.958;2023-05-27T14:28:22;5.7;;;2.6;;
78079;SDS011;67298;51.322;5.958;2023-05-27T14:33:01;5.5;;;2.7;;
78079;SDS011;67298;51.322;5.958;2023-05-27T14:37:40;5.8;;;2.8;;
78079;SDS011;67298;51.322;5.958;2023-05-27T14:42:20;4.6;;;2.3;;
78079;SDS011;67298;51.322;5.958;2023-05-27T14:46:59;4.2;;;2.4;;
78079;SDS011;67298;51.322;5.958;2023-05-27T14:51:39;5.4;;;2.7;;
78079;SDS011;67298;51.322;5.958;2023-05-27T14:56:18;3.5;;;2.3;;
78079;SDS011;67298;51.322;5.958;2023-05-27T15:00:57;4.0;;;2.4;;
78079;SDS011;67298;51.322;5.958;2023-05-27T15:05:37;4.7;;;2.5;;
78079;SDS011;67298;51.322;5.958;2023-05-27T15:10:16;3.5;;;2.6;;
78079;SDS011;67298;51.322;5.958;2023-05-27T15:14:56;4.8;;;2.7;;
78079;SDS011;67298;51.322;5.958;2023-05-27T15:19:35;4.5;;;2.9;;
78079;SDS011;67298;51.322;5.958;2023-05-27T15:24:16;2.3;;;2.1;;
78079;SDS011;67298;51.322;5.958;2023-05-27T15:28:55;3.2;;;2.4;;
78079;SDS011;67298;51.322;5.958;2023-05-27T15:33:35;3.4;;;2.4;;
78079;SDS011;67298;51.322;5.958;2023-05-27T15:38:14;4.7;;;2.9;;
78079;SDS011;67298;51.322;5.958;2023-05-27T15:42:54;5.4;;;2.8;;
78079;SDS011;67298;51.322;5.958;2023-05-27T15:47:33;4.2;;;2.1;;
78079;SDS011;67298;51.322;5.958;2023-05-27T15:52:12;5.1;;;2.5;;
78079;SDS011;67298;51.322;5.958;2023-05-27T15:56:52;4.4;;;2.8;;
78079;SDS011;67298;51.322;5.958;2023-05-27T16:01:31;0.6;;;0.5;;
78079;SDS011;67298;51.322;5.958;2023-05-27T16:06:11;6.9;;;3.3;;
78079;SDS011;67298;51.322;5.958;2023-05-27T16:10:51;5.4;;;2.4;;
78079;SDS011;67298;51.322;5.958;2023-05-27T16:15:30;4.1;;;2.4;;
78079;SDS011;67298;51.322;5.958;2023-05-27T16:20:10;3.8;;;2.0;;
78079;SDS011;67298;51.322;5.958;2023-05-27T16:24:49;3.2;;;1.8;;
78079;SDS011;67298;51.322;5.958;2023-05-27T16:29:28;2.8;;;2.3;;
78079;SDS011;67298;51.322;5.958;2023-05-27T16:34:08;3.9;;;2.2;;
78079;SDS011;67298;51.322;5.958;2023-05-27T16:38:47;3.6;;;2.7;;
78079;SDS011;67298;51.322;5.958;2023-05-27T16:43:26;4.6;;;2.3;;
78079;SDS011;67298;51.322;5.958;2023-05-27T16:48:06;2.5;;;1.9;;
78079;SDS011;67298;51.322;5.958;2023-05-27T16:52:45;3.8;;;2.3;;
78079;SDS011;67298;51.322;5.958;2023-05-27T16:57:25;2.6;;;2.0;;
78079;SDS011;67298;51.322;5.958;2023-05-27T17:02:05;0.6;;;0.6;;
78079;SDS011;67298;51.322;5.958;2023-05-27T17:06:44;4.7;;;1.7;;
78079;SDS011;67298;51.322;5.958;2023-05-27T17:11:23;1.0;;;0.8;;
78079;SDS011;67298;51.322;5.958;2023-05-27T17:16:03;3.3;;;1.5;;
78079;SDS011;67298;51.322;5.958;2023-05-27T17:20:42;1.1;;;1.1;;
78079;SDS011;67298;51.322;5.958;2023-05-27T17:25:22;3.1;;;1.8;;
78079;SDS011;67298;51.322;5.958;2023-05-27T17:30:01;4.8;;;2.5;;
78079;SDS011;67298;51.322;5.958;2023-05-27T17:34:41;8.0;;;2.3;;
78079;SDS011;67298;51.322;5.958;2023-05-27T17:39:20;9.9;;;2.9;;
78079;SDS011;67298;51.322;5.958;2023-05-27T17:43:59;3.4;;;2.0;;
78079;SDS011;67298;51.322;5.958;2023-05-27T17:48:39;2.0;;;1.8;;
78079;SDS011;67298;51.322;5.958;2023-05-27T17:53:18;3.3;;;2.3;;
78079;SDS011;67298;51.322;5.958;2023-05-27T17:57:58;8.3;;;2.1;;
78079;SDS011;67298;51.322;5.958;2023-05-27T18:02:37;2.0;;;1.9;;
78079;SDS011;67298;51.322;5.958;2023-05-27T18:07:16;2.9;;;2.1;;
78079;SDS011;67298;51.322;5.958;2023-05-27T18:11:56;5.4;;;1.9;;
78079;SDS011;67298;51.322;5.958;2023-05-27T18:16:35;3.8;;;2.1;;
78079;SDS011;67298;51.322;5.958;2023-05-27T18:21:15;2.9;;;1.9;;
78079;SDS011;67298;51.322;5.958;2023-05-27T18:25:54;7.7;;;1.8;;
78079;SDS011;67298;51.322;5.958;2023-05-27T18:30:33;5.0;;;1.6;;
78079;SDS011;67298;51.322;5.958;2023-05-27T18:35:13;4.1;;;1.7;;
78079;SDS011;67298;51.322;5.958;2023-05-27T18:39:52;0.1;;;0.1;;
78079;SDS011;67298;51.322;5.958;2023-05-27T18:44:32;3.7;;;2.1;;
78079;SDS011;67298;51.322;5.958;2023-05-27T18:49:11;1.6;;;1.0;;
78079;SDS011;67298;51.322;5.958;2023-05-27T18:53:50;2.2;;;1.9;;
78079;SDS011;67298;51.322;5.958;2023-05-27T18:58:30;4.8;;;2.6;;
78079;SDS011;67298;51.322;5.958;2023-05-27T19:03:09;0.7;;;0.7;;
78079;SDS011;67298;51.322;5.958;2023-05-27T19:07:48;3.7;;;1.9;;
78079;SDS011;67298;51.322;5.958;2023-05-27T19:12:28;3.0;;;1.7;;
78079;SDS011;67298;51.322;5.958;2023-05-27T19:17:07;3.4;;;2.2;;
78079;SDS011;67298;51.322;5.958;2023-05-27T19:21:47;3.1;;;1.7;;
78079;SDS011;67298;51.322;5.958;2023-05-27T19:26:26;3.7;;;2.6;;
78079;SDS011;67298;51.322;5.958;2023-05-27T19:31:06;4.0;;;2.7;;
78079;SDS011;67298;51.322;5.958;2023-05-27T19:35:45;3.9;;;2.0;;
78079;SDS011;67298;51.322;5.958;2023-05-27T19:40:24;0.8;;;0.8;;
78079;SDS011;67298;51.322;5.958;2023-05-27T19:45:04;2.8;;;2.5;;
78079;SDS011;67298;51.322;5.958;2023-05-27T19:49:43;1.4;;;1.3;;
78079;SDS011;67298;51.322;5.958;2023-05-27T19:54:22;2.0;;;1.5;;
78079;SDS011;67298;51.322;5.958;2023-05-27T19:59:02;4.1;;;1.8;;
78079;SDS011;67298;51.322;5.958;2023-05-27T20:03:42;8.5;;;2.1;;
78079;SDS011;67298;51.322;5.958;2023-05-27T20:08:21;3.9;;;2.2;;
78079;SDS011;67298;51.322;5.958;2023-05-27T20:13:01;2.7;;;1.3;;
78079;SDS011;67298;51.322;5.958;2023-05-27T20:17:40;5.3;;;2.1;;
78079;SDS011;67298;51.322;5.958;2023-05-27T20:22:20;3.2;;;2.0;;
78079;SDS011;67298;51.322;5.958;2023-05-27T20:26:59;1.1;;;1.0;;
78079;SDS011;67298;51.322;5.958;2023-05-27T20:31:38;4.0;;;1.7;;
78079;SDS011;67298;51.322;5.958;2023-05-27T20:36:18;2.3;;;1.6;;
78079;SDS011;67298;51.322;5.958;2023-05-27T20:40:57;4.3;;;2.2;;
78079;SDS011;67298;51.322;5.958;2023-05-27T20:45:36;2.3;;;1.5;;
78079;SDS011;67298;51.322;5.958;2023-05-27T20:50:22;8.6;;;1.5;;
78079;SDS011;67298;51.322;5.958;2023-05-27T20:55:01;4.8;;;1.8;;
78079;SDS011;67298;51.322;5.958;2023-05-27T20:59:41;5.8;;;2.7;;
78079;SDS011;67298;51.322;5.958;2023-05-27T21:04:20;3.2;;;1.9;;
78079;SDS011;67298;51.322;5.958;2023-05-27T21:08:59;2.6;;;1.8;;
78079;SDS011;67298;51.322;5.958;2023-05-27T21:13:39;2.1;;;1.9;;
78079;SDS011;67298;51.322;5.958;2023-05-27T21:18:18;4.6;;;2.1;;
78079;SDS011;67298;51.322;5.958;2023-05-27T21:22:57;7.4;;;2.3;;
78079;SDS011;67298;51.322;5.958;2023-05-27T21:27:37;2.1;;;1.1;;
78079;SDS011;67298;51.322;5.958;2023-05-27T21:32:16;2.1;;;1.7;;
78079;SDS011;67298;51.322;5.958;2023-05-27T21:36:56;3.3;;;1.7;;
78079;SDS011;67298;51.322;5.958;2023-05-27T21:41:35;1.4;;;1.3;;
78079;SDS011;67298;51.322;5.958;2023-05-27T21:46:15;3.3;;;1.9;;
78079;SDS011;67298;51.322;5.958;2023-05-27T21:50:54;2.7;;;2.2;;
78079;SDS011;67298;51.322;5.958;2023-05-27T21:55:33;2.6;;;2.0;;
78079;SDS011;67298;51.322;5.958;2023-05-27T22:00:13;3.0;;;2.0;;
78079;SDS011;67298;51.322;5.958;2023-05-27T22:04:52;5.1;;;1.6;;
78079;SDS011;67298;51.322;5.958;2023-05-27T22:09:31;3.0;;;1.5;;
78079;SDS011;67298;51.322;5.958;2023-05-27T22:14:11;5.9;;;2.4;;
78079;SDS011;67298;51.322;5.958;2023-05-27T22:18:50;13.6;;;2.4;;
78079;SDS011;67298;51.322;5.958;2023-05-27T22:23:30;4.9;;;2.1;;
78079;SDS011;67298;51.322;5.958;2023-05-27T22:28:09;4.2;;;2.3;;
78079;SDS011;67298;51.322;5.958;2023-05-27T22:32:48;3.9;;;1.9;;
78079;SDS011;67298;51.322;5.958;2023-05-27T22:37:28;9.1;;;2.6;;
78079;SDS011;67298;51.322;5.958;2023-05-27T22:42:07;18.4;;;5.9;;
78079;SDS011;67298;51.322;5.958;2023-05-27T22:46:46;14.0;;;4.4;;
78079;SDS011;67298;51.322;5.958;2023-05-27T22:51:26;5.2;;;2.6;;
78079;SDS011;67298;51.322;5.958;2023-05-27T22:56:05;4.9;;;2.7;;
78079;SDS011;67298;51.322;5.958;2023-05-27T23:00:45;4.4;;;2.0;;
78079;SDS011;67298;51.322;5.958;2023-05-27T23:05:24;5.5;;;2.3;;
78079;SDS011;67298;51.322;5.958;2023-05-27T23:10:03;4.2;;;2.7;;
78079;SDS011;67298;51.322;5.958;2023-05-27T23:14:43;3.9;;;1.9;;
78079;SDS011;67298;51.322;5.958;2023-05-27T23:19:22;1.9;;;1.7;;
78079;SDS011;67298;51.322;5.958;2023-05-27T23:24:02;7.7;;;2.9;;
78079;SDS011;67298;51.322;5.958;2023-05-27T23:28:41;1.2;;;1.1;;
78079;SDS011;67298;51.322;5.958;2023-05-27T23:33:20;3.4;;;1.7;;
78079;SDS011;67298;51.322;5.958;2023-05-27T23:38:00;5.2;;;3.6;;
78079;SDS011;67298;51.322;5.958;2023-05-27T23:42:39;5.6;;;1.4;;
78079;SDS011;67298;51.322;5.958;2023-05-27T23:47:19;4.4;;;2.9;;
78079;SDS011;67298;51.322;5.958;2023-05-27T23:51:58;1.3;;;1.1;;
78079;SDS011;67298;51.322;5.958;2023-05-27T23:56:37;0.8;;;0.8;;
